sensor_id;sensor_type;location;lat;lon;timestamp;pressure;altitude;pressure_sealevel;temperature;humidity
54994;BME280;40891;47.242;8.648;2022-10-22T00:01:22;96244.59;;;15.00;100.00
54994;BME280;40891;47.242;8.648;2022-10-22T00:03:49;96245.53;;;14.97;100.00
54994;BME280;40891;47.242;8.648;2022-10-22T00:06:14;96237.81;;;15.07;100.00
54994;BME280;40891;47.242;8.648;2022-10-22T00:08:39;96243.91;;;14.90;100.00
54994;BME280;40891;47.242;8.648;2022-10-22T00:11:16;96237.25;;;14.88;100.00
54994;BME280;40891;47.242;8.648;2022-10-22T00:13:42;96243.81;;;14.99;100.00
54994;BME280;40891;47.242;8.648;2022-10-22T00:16:08;96244.94;;;14.93;100.00
54994;BME280;40891;47.242;8.648;2022-10-22T00:18:35;96257.25;;;14.81;100.00
54994;BME280;40891;47.242;8.648;2022-10-22T00:21:01;96256.94;;;14.79;100.00
54994;BME280;40891;47.242;8.648;2022-10-22T00:23:26;96263.03;;;14.77;100.00
54994;BME280;40891;47.242;8.648;2022-10-22T00:25:52;96259.38;;;14.71;100.00
54994;BME280;40891;47.242;8.648;2022-10-22T00:28:17;96258.88;;;14.73;100.00
54994;BME280;40891;47.242;8.648;2022-10-22T00:30:43;96248.19;;;14.71;100.00
54994;BME280;40891;47.242;8.648;2022-10-22T00:33:08;96258.59;;;14.71;100.00
54994;BME280;40891;47.242;8.648;2022-10-22T00:35:34;96260.13;;;14.72;100.00
54994;BME280;40891;47.242;8.648;2022-10-22T00:37:59;96261.69;;;14.73;100.00
54994;BME280;40891;47.242;8.648;2022-10-22T00:40:25;96268.06;;;14.73;100.00
54994;BME280;40891;47.242;8.648;2022-10-22T00:42:50;96274.31;;;14.68;100.00
54994;BME280;40891;47.242;8.648;2022-10-22T00:45:21;96282.63;;;14.63;100.00
54994;BME280;40891;47.242;8.648;2022-10-22T00:50:19;96294.28;;;14.61;100.00
54994;BME280;40891;47.242;8.648;2022-10-22T00:52:46;96294.78;;;14.60;100.00
54994;BME280;40891;47.242;8.648;2022-10-22T00:55:12;96296.53;;;14.57;100.00
54994;BME280;40891;47.242;8.648;2022-10-22T00:57:38;96301.91;;;14.61;100.00
54994;BME280;40891;47.242;8.648;2022-10-22T01:00:04;96301.13;;;14.60;100.00
54994;BME280;40891;47.242;8.648;2022-10-22T01:02:29;96307.41;;;14.55;100.00
54994;BME280;40891;47.242;8.648;2022-10-22T01:04:54;96308.66;;;14.54;100.00
54994;BME280;40891;47.242;8.648;2022-10-22T01:07:21;96308.84;;;14.51;100.00
54994;BME280;40891;47.242;8.648;2022-10-22T01:10:05;96303.84;;;14.55;100.00
54994;BME280;40891;47.242;8.648;2022-10-22T01:13:08;96304.22;;;14.62;100.00
54994;BME280;40891;47.242;8.648;2022-10-22T01:15:47;96306.94;;;14.57;100.00
54994;BME280;40891;47.242;8.648;2022-10-22T01:18:29;96296.53;;;14.57;100.00
54994;BME280;40891;47.242;8.648;2022-10-22T01:31:36;96294.59;;;14.78;100.00
54994;BME280;40891;47.242;8.648;2022-10-22T01:34:05;96284.06;;;14.73;100.00
54994;BME280;40891;47.242;8.648;2022-10-22T01:36:33;96281.09;;;14.76;100.00
54994;BME280;40891;47.242;8.648;2022-10-22T01:39:00;96267.38;;;14.78;100.00
54994;BME280;40891;47.242;8.648;2022-10-22T01:41:27;96274.50;;;14.79;100.00
54994;BME280;40891;47.242;8.648;2022-10-22T01:43:53;96267.94;;;14.82;100.00
54994;BME280;40891;47.242;8.648;2022-10-22T01:46:22;96268.34;;;14.75;100.00
54994;BME280;40891;47.242;8.648;2022-10-22T01:49:13;96263.41;;;14.70;100.00
54994;BME280;40891;47.242;8.648;2022-10-22T01:55:12;96260.50;;;14.79;100.00
54994;BME280;40891;47.242;8.648;2022-10-22T02:00:18;96256.84;;;14.73;100.00
54994;BME280;40891;47.242;8.648;2022-10-22T02:03:04;96253.09;;;14.76;100.00
54994;BME280;40891;47.242;8.648;2022-10-22T02:05:44;96256.84;;;14.73;100.00
54994;BME280;40891;47.242;8.648;2022-10-22T02:08:16;96263.41;;;14.70;100.00
54994;BME280;40891;47.242;8.648;2022-10-22T02:10:43;96260.13;;;14.72;100.00
54994;BME280;40891;47.242;8.648;2022-10-22T02:13:33;96259.28;;;14.66;100.00
54994;BME280;40891;47.242;8.648;2022-10-22T02:16:02;96265.34;;;14.64;100.00
54994;BME280;40891;47.242;8.648;2022-10-22T02:18:30;96264.88;;;14.66;100.00
54994;BME280;40891;47.242;8.648;2022-10-22T02:20:57;96263.63;;;14.67;100.00
54994;BME280;40891;47.242;8.648;2022-10-22T02:23:24;96269.59;;;14.74;100.00
54994;BME280;40891;47.242;8.648;2022-10-22T02:26:06;96272.00;;;14.81;100.00
54994;BME280;40891;47.242;8.648;2022-10-22T02:28:43;96280.50;;;14.72;100.00
54994;BME280;40891;47.242;8.648;2022-10-22T02:31:18;96265.25;;;14.73;100.00
54994;BME280;40891;47.242;8.648;2022-10-22T02:33:48;96248.34;;;14.82;100.00
54994;BME280;40891;47.242;8.648;2022-10-22T02:36:16;96266.59;;;14.78;100.00
54994;BME280;40891;47.242;8.648;2022-10-22T02:38:42;96269.28;;;14.72;100.00
54994;BME280;40891;47.242;8.648;2022-10-22T02:41:07;96270.56;;;14.71;100.00
54994;BME280;40891;47.242;8.648;2022-10-22T02:43:47;96277.13;;;14.68;100.00
54994;BME280;40891;47.242;8.648;2022-10-22T02:46:13;96263.41;;;14.70;100.00
54994;BME280;40891;47.242;8.648;2022-10-22T02:48:38;96267.16;;;14.67;100.00
54994;BME280;40891;47.242;8.648;2022-10-22T02:51:04;96275.84;;;14.69;100.00
54994;BME280;40891;47.242;8.648;2022-10-22T02:53:29;96279.63;;;14.66;100.00
54994;BME280;40891;47.242;8.648;2022-10-22T02:55:55;96278.38;;;14.67;100.00
54994;BME280;40891;47.242;8.648;2022-10-22T02:58:20;96288.31;;;14.68;100.00
54994;BME280;40891;47.242;8.648;2022-10-22T03:00:47;96294.59;;;14.63;100.00
54994;BME280;40891;47.242;8.648;2022-10-22T03:03:12;96288.88;;;14.58;100.00
54994;BME280;40891;47.242;8.648;2022-10-22T03:05:37;96307.88;;;14.54;100.00
54994;BME280;40891;47.242;8.648;2022-10-22T03:08:03;96306.72;;;14.60;100.00
54994;BME280;40891;47.242;8.648;2022-10-22T03:10:28;96309.44;;;14.55;100.00
54994;BME280;40891;47.242;8.648;2022-10-22T03:12:54;96304.81;;;14.52;100.00
54994;BME280;40891;47.242;8.648;2022-10-22T03:15:20;96310.91;;;14.50;100.00
54994;BME280;40891;47.242;8.648;2022-10-22T03:17:45;96316.16;;;14.48;100.00
54994;BME280;40891;47.242;8.648;2022-10-22T03:20:10;96312.63;;;14.62;100.00
54994;BME280;40891;47.242;8.648;2022-10-22T03:22:38;96320.81;;;14.51;100.00
54994;BME280;40891;47.242;8.648;2022-10-22T03:25:08;96318.69;;;14.46;100.00
54994;BME280;40891;47.242;8.648;2022-10-22T03:27:35;96304.53;;;14.50;100.00
54994;BME280;40891;47.242;8.648;2022-10-22T03:30:02;96299.47;;;14.39;100.00
54994;BME280;40891;47.242;8.648;2022-10-22T03:32:28;96293.59;;;14.37;100.00
54994;BME280;40891;47.242;8.648;2022-10-22T03:34:53;96301.41;;;14.33;100.00
54994;BME280;40891;47.242;8.648;2022-10-22T03:37:19;96302.47;;;14.36;100.00
54994;BME280;40891;47.242;8.648;2022-10-22T03:39:44;96307.63;;;14.28;100.00
54994;BME280;40891;47.242;8.648;2022-10-22T03:42:10;96307.06;;;14.24;100.00
54994;BME280;40891;47.242;8.648;2022-10-22T03:44:38;96302.97;;;14.25;100.00
54994;BME280;40891;47.242;8.648;2022-10-22T03:47:05;96300.09;;;14.19;100.00
54994;BME280;40891;47.242;8.648;2022-10-22T03:49:30;96309.44;;;14.16;100.00
54994;BME280;40891;47.242;8.648;2022-10-22T03:51:56;96312.88;;;14.11;100.00
54994;BME280;40891;47.242;8.648;2022-10-22T03:54:21;96310.88;;;14.12;100.00
54994;BME280;40891;47.242;8.648;2022-10-22T03:56:46;96307.41;;;14.17;100.00
54994;BME280;40891;47.242;8.648;2022-10-22T03:59:12;96316.75;;;14.14;100.00
54994;BME280;40891;47.242;8.648;2022-10-22T04:01:37;96315.97;;;14.13;100.00
54994;BME280;40891;47.242;8.648;2022-10-22T04:04:03;96303.97;;;14.22;100.00
54994;BME280;40891;47.242;8.648;2022-10-22T04:06:28;96295.75;;;14.18;100.00
54994;BME280;40891;47.242;8.648;2022-10-22T04:08:54;96307.06;;;14.24;100.00
54994;BME280;40891;47.242;8.648;2022-10-22T04:11:19;96320.53;;;14.25;100.00
54994;BME280;40891;47.242;8.648;2022-10-22T04:13:45;96309.66;;;14.27;100.00
54994;BME280;40891;47.242;8.648;2022-10-22T04:16:16;96305.66;;;14.43;100.00
54994;BME280;40891;47.242;8.648;2022-10-22T04:18:43;96316.88;;;14.43;100.00
54994;BME280;40891;47.242;8.648;2022-10-22T04:21:10;96314.94;;;14.49;100.00
54994;BME280;40891;47.242;8.648;2022-10-22T04:23:36;96308.66;;;14.54;100.00
54994;BME280;40891;47.242;8.648;2022-10-22T04:26:05;96313.31;;;14.57;100.00
54994;BME280;40891;47.242;8.648;2022-10-22T04:28:31;96316.47;;;14.65;100.00
54994;BME280;40891;47.242;8.648;2022-10-22T04:30:56;96325.09;;;14.61;100.00
54994;BME280;40891;47.242;8.648;2022-10-22T04:33:22;96327.75;;;14.56;100.00
54994;BME280;40891;47.242;8.648;2022-10-22T04:35:48;96327.06;;;14.46;100.00
54994;BME280;40891;47.242;8.648;2022-10-22T04:38:13;96330.75;;;14.52;100.00
54994;BME280;40891;47.242;8.648;2022-10-22T04:40:38;96336.06;;;14.50;100.00
54994;BME280;40891;47.242;8.648;2022-10-22T04:43:04;96347.63;;;14.43;100.00
54994;BME280;40891;47.242;8.648;2022-10-22T04:45:29;96338.75;;;14.45;100.00
54994;BME280;40891;47.242;8.648;2022-10-22T04:47:55;96343.19;;;14.51;100.00
54994;BME280;40891;47.242;8.648;2022-10-22T04:50:20;96345.44;;;14.62;100.00
54994;BME280;40891;47.242;8.648;2022-10-22T04:52:46;96358.91;;;14.49;100.00
54994;BME280;40891;47.242;8.648;2022-10-22T04:55:11;96355.94;;;14.52;100.00
54994;BME280;40891;47.242;8.648;2022-10-22T04:57:36;96353.16;;;14.52;100.00
54994;BME280;40891;47.242;8.648;2022-10-22T05:00:03;96349.09;;;14.53;100.00
54994;BME280;40891;47.242;8.648;2022-10-22T05:02:28;96356.31;;;14.45;100.00
54994;BME280;40891;47.242;8.648;2022-10-22T05:04:54;96362.19;;;14.47;100.00
54994;BME280;40891;47.242;8.648;2022-10-22T05:07:19;96351.66;;;14.42;100.00
54994;BME280;40891;47.242;8.648;2022-10-22T05:09:44;96354.97;;;14.41;100.00
54994;BME280;40891;47.242;8.648;2022-10-22T05:12:10;96357.44;;;14.39;100.00
54994;BME280;40891;47.242;8.648;2022-10-22T05:14:35;96353.00;;;14.32;100.00
54994;BME280;40891;47.242;8.648;2022-10-22T05:17:00;96364.34;;;14.28;100.00
54994;BME280;40891;47.242;8.648;2022-10-22T05:19:28;96363.06;;;14.29;100.00
54994;BME280;40891;47.242;8.648;2022-10-22T05:21:56;96368.09;;;14.25;100.00
54994;BME280;40891;47.242;8.648;2022-10-22T05:24:23;96367.22;;;14.43;100.00
54994;BME280;40891;47.242;8.648;2022-10-22T05:26:49;96371.75;;;14.55;100.00
54994;BME280;40891;47.242;8.648;2022-10-22T05:29:15;96381.03;;;14.61;100.00
54994;BME280;40891;47.242;8.648;2022-10-22T05:31:40;96380.84;;;14.65;100.00
54994;BME280;40891;47.242;8.648;2022-10-22T05:34:05;96384.88;;;14.49;100.00
54994;BME280;40891;47.242;8.648;2022-10-22T05:36:31;96387.97;;;14.51;100.00
54994;BME280;40891;47.242;8.648;2022-10-22T05:38:56;96391.72;;;14.48;100.00
54994;BME280;40891;47.242;8.648;2022-10-22T05:41:23;96393.09;;;14.53;100.00
54994;BME280;40891;47.242;8.648;2022-10-22T05:43:49;96397.84;;;14.61;100.00
54994;BME280;40891;47.242;8.648;2022-10-22T05:46:20;96396.13;;;14.40;100.00
54994;BME280;40891;47.242;8.648;2022-10-22T05:48:54;96401.59;;;14.35;100.00
54994;BME280;40891;47.242;8.648;2022-10-22T05:51:20;96404.44;;;14.25;100.00
54994;BME280;40891;47.242;8.648;2022-10-22T05:53:51;96406.00;;;14.26;100.00
54994;BME280;40891;47.242;8.648;2022-10-22T05:56:16;96408.19;;;14.22;100.00
54994;BME280;40891;47.242;8.648;2022-10-22T05:58:43;96413.50;;;14.20;100.00
54994;BME280;40891;47.242;8.648;2022-10-22T06:01:21;96425.44;;;14.21;100.00
54994;BME280;40891;47.242;8.648;2022-10-22T06:03:47;96424.88;;;14.17;100.00
54994;BME280;40891;47.242;8.648;2022-10-22T06:06:30;96425.03;;;14.13;100.00
54994;BME280;40891;47.242;8.648;2022-10-22T06:09:09;96433.41;;;14.13;100.00
54994;BME280;40891;47.242;8.648;2022-10-22T06:11:35;96439.50;;;14.12;100.00
54994;BME280;40891;47.242;8.648;2022-10-22T06:14:01;96446.63;;;14.13;100.00
54994;BME280;40891;47.242;8.648;2022-10-22T06:16:30;96461.56;;;14.10;100.00
54994;BME280;40891;47.242;8.648;2022-10-22T06:18:58;96450.06;;;14.08;100.00
54994;BME280;40891;47.242;8.648;2022-10-22T06:21:24;96457.22;;;14.09;100.00
54994;BME280;40891;47.242;8.648;2022-10-22T06:23:49;96445.25;;;14.08;100.00
54994;BME280;40891;47.242;8.648;2022-10-22T06:26:14;96436.84;;;14.08;100.00
54994;BME280;40891;47.242;8.648;2022-10-22T06:28:42;96424.72;;;14.11;100.00
54994;BME280;40891;47.242;8.648;2022-10-22T06:31:08;96414.03;;;14.10;100.00
54994;BME280;40891;47.242;8.648;2022-10-22T06:33:34;96434.09;;;14.32;100.00
54994;BME280;40891;47.242;8.648;2022-10-22T06:36:07;96427.75;;;14.22;100.00
54994;BME280;40891;47.242;8.648;2022-10-22T06:38:33;96425.81;;;14.14;100.00
54994;BME280;40891;47.242;8.648;2022-10-22T06:41:10;96416.00;;;14.18;100.00
54994;BME280;40891;47.242;8.648;2022-10-22T06:43:36;96418.50;;;14.16;100.00
54994;BME280;40891;47.242;8.648;2022-10-22T06:46:05;96424.81;;;14.26;100.00
54994;BME280;40891;47.242;8.648;2022-10-22T06:48:31;96431.47;;;14.28;100.00
54994;BME280;40891;47.242;8.648;2022-10-22T06:51:05;96446.19;;;14.38;100.00
54994;BME280;40891;47.242;8.648;2022-10-22T06:53:31;96442.13;;;14.39;100.00
54994;BME280;40891;47.242;8.648;2022-10-22T06:55:56;96441.19;;;14.42;100.00
54994;BME280;40891;47.242;8.648;2022-10-22T06:58:22;96449.59;;;14.42;100.00
54994;BME280;40891;47.242;8.648;2022-10-22T07:00:47;96457.31;;;14.47;100.00
54994;BME280;40891;47.242;8.648;2022-10-22T07:03:13;96468.66;;;14.53;100.00
54994;BME280;40891;47.242;8.648;2022-10-22T07:05:40;96462.50;;;14.63;100.00
54994;BME280;40891;47.242;8.648;2022-10-22T07:08:06;96464.44;;;14.72;100.00
54994;BME280;40891;47.242;8.648;2022-10-22T07:10:32;96473.16;;;14.88;100.00
54994;BME280;40891;47.242;8.648;2022-10-22T07:12:57;96473.56;;;14.96;100.00
54994;BME280;40891;47.242;8.648;2022-10-22T07:15:23;96469.81;;;14.99;100.00
54994;BME280;40891;47.242;8.648;2022-10-22T07:17:49;96477.19;;;15.11;100.00
54994;BME280;40891;47.242;8.648;2022-10-22T07:20:16;96470.56;;;15.23;100.00
54994;BME280;40891;47.242;8.648;2022-10-22T07:22:43;96483.56;;;15.26;100.00
54994;BME280;40891;47.242;8.648;2022-10-22T07:25:08;96477.41;;;15.37;100.00
54994;BME280;40891;47.242;8.648;2022-10-22T07:27:34;96482.47;;;15.62;100.00
54994;BME280;40891;47.242;8.648;2022-10-22T07:29:59;96481.22;;;15.63;100.00
54994;BME280;40891;47.242;8.648;2022-10-22T07:32:25;96477.81;;;15.88;100.00
54994;BME280;40891;47.242;8.648;2022-10-22T07:34:51;96488.50;;;16.04;100.00
54994;BME280;40891;47.242;8.648;2022-10-22T07:37:16;96479.25;;;15.98;100.00
54994;BME280;40891;47.242;8.648;2022-10-22T07:39:46;96488.06;;;15.91;100.00
54994;BME280;40891;47.242;8.648;2022-10-22T07:42:11;96486.59;;;15.96;100.00
54994;BME280;40891;47.242;8.648;2022-10-22T07:44:36;96488.28;;;16.22;100.00
54994;BME280;40891;47.242;8.648;2022-10-22T07:47:02;96484.53;;;16.80;100.00
54994;BME280;40891;47.242;8.648;2022-10-22T07:49:27;96491.84;;;17.38;100.00
54994;BME280;40891;47.242;8.648;2022-10-22T07:51:52;96488.06;;;17.41;99.44
54994;BME280;40891;47.242;8.648;2022-10-22T07:54:17;96472.69;;;17.62;98.25
54994;BME280;40891;47.242;8.648;2022-10-22T07:56:43;96484.41;;;17.87;100.00
54994;BME280;40891;47.242;8.648;2022-10-22T07:59:08;96482.94;;;18.65;95.48
54994;BME280;40891;47.242;8.648;2022-10-22T08:01:34;96487.19;;;20.00;91.38
54994;BME280;40891;47.242;8.648;2022-10-22T08:03:59;96482.91;;;21.64;78.48
54994;BME280;40891;47.242;8.648;2022-10-22T08:06:24;96473.28;;;23.40;65.65
54994;BME280;40891;47.242;8.648;2022-10-22T08:08:50;96478.75;;;23.88;62.12
54994;BME280;40891;47.242;8.648;2022-10-22T08:11:15;96474.47;;;24.77;60.88
54994;BME280;40891;47.242;8.648;2022-10-22T08:13:40;96482.13;;;25.47;54.12
54994;BME280;40891;47.242;8.648;2022-10-22T08:16:06;96473.91;;;25.91;53.99
54994;BME280;40891;47.242;8.648;2022-10-22T08:18:31;96478.22;;;26.67;51.01
54994;BME280;40891;47.242;8.648;2022-10-22T08:20:57;96483.06;;;25.97;52.34
54994;BME280;40891;47.242;8.648;2022-10-22T08:23:22;96481.03;;;25.84;54.23
54994;BME280;40891;47.242;8.648;2022-10-22T08:25:48;96485.41;;;25.12;54.61
54994;BME280;40891;47.242;8.648;2022-10-22T08:28:13;96486.03;;;25.91;52.96
54994;BME280;40891;47.242;8.648;2022-10-22T08:30:38;96495.84;;;26.16;51.90
54994;BME280;40891;47.242;8.648;2022-10-22T08:33:04;96482.06;;;26.90;47.97
54994;BME280;40891;47.242;8.648;2022-10-22T08:35:30;96479.19;;;27.46;47.72
54994;BME280;40891;47.242;8.648;2022-10-22T08:37:55;96482.34;;;28.29;43.55
54994;BME280;40891;47.242;8.648;2022-10-22T08:40:29;96477.03;;;28.64;44.88
54994;BME280;40891;47.242;8.648;2022-10-22T08:45:39;96483.50;;;29.87;42.63
54994;BME280;40891;47.242;8.648;2022-10-22T08:48:38;96478.25;;;30.01;41.27
54994;BME280;40891;47.242;8.648;2022-10-22T08:51:11;96475.75;;;30.05;40.84
54994;BME280;40891;47.242;8.648;2022-10-22T08:53:56;96486.16;;;28.47;43.02
54994;BME280;40891;47.242;8.648;2022-10-22T08:56:29;96485.06;;;26.84;44.36
54994;BME280;40891;47.242;8.648;2022-10-22T08:59:01;96493.44;;;26.62;48.70
54994;BME280;40891;47.242;8.648;2022-10-22T09:01:39;96475.88;;;27.35;46.31
54994;BME280;40891;47.242;8.648;2022-10-22T09:04:29;96476.59;;;28.14;43.20
54994;BME280;40891;47.242;8.648;2022-10-22T09:06:58;96485.19;;;29.35;42.43
54994;BME280;40891;47.242;8.648;2022-10-22T09:09:39;96490.19;;;30.54;39.96
54994;BME280;40891;47.242;8.648;2022-10-22T09:12:10;96487.38;;;31.89;37.55
54994;BME280;40891;47.242;8.648;2022-10-22T09:14:39;96480.31;;;32.80;34.18
54994;BME280;40891;47.242;8.648;2022-10-22T09:17:11;96482.28;;;33.23;34.82
54994;BME280;40891;47.242;8.648;2022-10-22T09:23:02;96489.47;;;33.70;32.54
54994;BME280;40891;47.242;8.648;2022-10-22T09:25:31;96484.94;;;33.67;32.49
54994;BME280;40891;47.242;8.648;2022-10-22T09:27:59;96491.00;;;33.81;31.36
54994;BME280;40891;47.242;8.648;2022-10-22T09:30:30;96492.75;;;34.53;31.57
54994;BME280;40891;47.242;8.648;2022-10-22T09:35:47;96494.88;;;34.43;30.50
54994;BME280;40891;47.242;8.648;2022-10-22T09:38:18;96496.66;;;34.98;29.40
54994;BME280;40891;47.242;8.648;2022-10-22T09:40:46;96494.00;;;35.21;29.13
54994;BME280;40891;47.242;8.648;2022-10-22T09:43:13;96494.31;;;34.84;29.82
54994;BME280;40891;47.242;8.648;2022-10-22T09:45:39;96499.00;;;34.40;30.11
54994;BME280;40891;47.242;8.648;2022-10-22T09:50:48;96496.09;;;35.51;28.19
54994;BME280;40891;47.242;8.648;2022-10-22T09:53:20;96496.44;;;35.67;27.88
54994;BME280;40891;47.242;8.648;2022-10-22T09:55:53;96504.75;;;34.49;29.00
54994;BME280;40891;47.242;8.648;2022-10-22T09:58:19;96506.25;;;35.31;27.85
54994;BME280;40891;47.242;8.648;2022-10-22T10:00:50;96508.72;;;35.25;28.20
54994;BME280;40891;47.242;8.648;2022-10-22T10:03:18;96494.50;;;36.13;28.17
54994;BME280;40891;47.242;8.648;2022-10-22T10:05:46;96496.94;;;35.11;28.43
54994;BME280;40891;47.242;8.648;2022-10-22T10:08:14;96497.59;;;36.27;26.16
54994;BME280;40891;47.242;8.648;2022-10-22T10:19:16;96499.59;;;36.69;25.16
54994;BME280;40891;47.242;8.648;2022-10-22T10:27:35;96498.38;;;37.41;23.19
54994;BME280;40891;47.242;8.648;2022-10-22T10:30:09;96502.19;;;36.42;26.00
54994;BME280;40891;47.242;8.648;2022-10-22T10:46:16;96502.78;;;38.02;22.53
54994;BME280;40891;47.242;8.648;2022-10-22T11:07:45;96500.59;;;39.58;21.65
54994;BME280;40891;47.242;8.648;2022-10-22T11:10:27;96511.91;;;39.52;21.78
54994;BME280;40891;47.242;8.648;2022-10-22T11:13:56;96504.41;;;39.61;20.60
54994;BME280;40891;47.242;8.648;2022-10-22T11:19:18;96502.56;;;37.38;24.25
54994;BME280;40891;47.242;8.648;2022-10-22T11:24:32;96496.38;;;37.92;23.79
54994;BME280;40891;47.242;8.648;2022-10-22T11:29:32;96497.97;;;37.59;22.49
54994;BME280;40891;47.242;8.648;2022-10-22T11:32:00;96498.91;;;37.03;23.46
54994;BME280;40891;47.242;8.648;2022-10-22T11:34:37;96497.72;;;35.96;25.22
54994;BME280;40891;47.242;8.648;2022-10-22T11:37:05;96497.69;;;36.17;25.81
54994;BME280;40891;47.242;8.648;2022-10-22T11:39:44;96486.41;;;37.12;23.05
54994;BME280;40891;47.242;8.648;2022-10-22T11:42:16;96482.28;;;38.37;23.19
54994;BME280;40891;47.242;8.648;2022-10-22T11:49:58;96473.09;;;38.54;22.31
54994;BME280;40891;47.242;8.648;2022-10-22T11:55:00;96476.69;;;39.32;20.83
54994;BME280;40891;47.242;8.648;2022-10-22T11:57:37;96474.50;;;39.19;21.96
54994;BME280;40891;47.242;8.648;2022-10-22T12:00:09;96480.16;;;38.76;23.06
54994;BME280;40891;47.242;8.648;2022-10-22T12:02:42;96468.56;;;39.72;20.67
54994;BME280;40891;47.242;8.648;2022-10-22T12:08:15;96468.81;;;35.02;26.29
54994;BME280;40891;47.242;8.648;2022-10-22T12:11:05;96472.16;;;34.08;27.43
54994;BME280;40891;47.242;8.648;2022-10-22T12:16:43;96465.84;;;32.07;31.15
54994;BME280;40891;47.242;8.648;2022-10-22T12:19:16;96473.72;;;31.90;30.96
54994;BME280;40891;47.242;8.648;2022-10-22T12:21:46;96469.25;;;32.23;30.46
54994;BME280;40891;47.242;8.648;2022-10-22T12:24:14;96470.88;;;31.38;32.77
54994;BME280;40891;47.242;8.648;2022-10-22T12:26:41;96478.59;;;31.53;33.26
54994;BME280;40891;47.242;8.648;2022-10-22T12:29:13;96468.06;;;33.73;29.67
54994;BME280;40891;47.242;8.648;2022-10-22T12:31:40;96457.34;;;35.98;25.75
54994;BME280;40891;47.242;8.648;2022-10-22T12:34:06;96464.19;;;37.77;23.18
54994;BME280;40891;47.242;8.648;2022-10-22T12:36:33;96459.59;;;38.47;21.48
54994;BME280;40891;47.242;8.648;2022-10-22T12:39:10;96466.81;;;37.47;22.82
54994;BME280;40891;47.242;8.648;2022-10-22T12:41:36;96464.13;;;38.50;21.37
54994;BME280;40891;47.242;8.648;2022-10-22T12:44:03;96462.81;;;38.40;21.37
54994;BME280;40891;47.242;8.648;2022-10-22T12:46:31;96462.59;;;38.74;20.20
54994;BME280;40891;47.242;8.648;2022-10-22T12:48:59;96460.78;;;39.76;20.39
54994;BME280;40891;47.242;8.648;2022-10-22T12:51:26;96460.44;;;38.89;21.33
54994;BME280;40891;47.242;8.648;2022-10-22T12:53:54;96458.84;;;39.67;20.18
54994;BME280;40891;47.242;8.648;2022-10-22T12:56:22;96462.53;;;39.13;20.08
54994;BME280;40891;47.242;8.648;2022-10-22T12:58:56;96456.66;;;38.72;20.85
54994;BME280;40891;47.242;8.648;2022-10-22T13:01:25;96449.59;;;38.50;22.13
54994;BME280;40891;47.242;8.648;2022-10-22T13:04:05;96449.81;;;39.34;21.10
54994;BME280;40891;47.242;8.648;2022-10-22T13:06:33;96446.31;;;37.69;21.84
54994;BME280;40891;47.242;8.648;2022-10-22T13:09:35;96450.66;;;37.44;21.76
54994;BME280;40891;47.242;8.648;2022-10-22T13:12:01;96444.28;;;37.71;21.75
54994;BME280;40891;47.242;8.648;2022-10-22T13:14:36;96446.56;;;39.14;20.94
54994;BME280;40891;47.242;8.648;2022-10-22T13:22:04;96439.44;;;38.76;22.38
54994;BME280;40891;47.242;8.648;2022-10-22T13:24:29;96435.72;;;38.62;20.38
54994;BME280;40891;47.242;8.648;2022-10-22T13:26:55;96434.31;;;38.50;20.95
54994;BME280;40891;47.242;8.648;2022-10-22T13:29:22;96429.31;;;38.91;21.39
54994;BME280;40891;47.242;8.648;2022-10-22T13:31:50;96428.56;;;39.45;20.33
54994;BME280;40891;47.242;8.648;2022-10-22T13:34:18;96422.00;;;38.12;22.01
54994;BME280;40891;47.242;8.648;2022-10-22T13:36:44;96430.41;;;39.11;20.62
54994;BME280;40891;47.242;8.648;2022-10-22T13:39:21;96422.41;;;39.12;20.94
54994;BME280;40891;47.242;8.648;2022-10-22T13:41:48;96414.34;;;38.83;21.56
54994;BME280;40891;47.242;8.648;2022-10-22T13:44:17;96421.34;;;39.05;20.87
54994;BME280;40891;47.242;8.648;2022-10-22T13:46:44;96414.81;;;39.18;20.46
54994;BME280;40891;47.242;8.648;2022-10-22T13:49:18;96414.28;;;38.56;21.06
54994;BME280;40891;47.242;8.648;2022-10-22T13:51:45;96414.69;;;37.86;21.40
54994;BME280;40891;47.242;8.648;2022-10-22T13:54:17;96415.13;;;38.20;21.14
54994;BME280;40891;47.242;8.648;2022-10-22T13:56:44;96406.03;;;38.00;21.26
54994;BME280;40891;47.242;8.648;2022-10-22T13:59:09;96404.72;;;37.53;22.29
54994;BME280;40891;47.242;8.648;2022-10-22T14:01:35;96411.88;;;38.39;21.65
54994;BME280;40891;47.242;8.648;2022-10-22T14:04:03;96404.91;;;38.19;21.46
54994;BME280;40891;47.242;8.648;2022-10-22T14:06:30;96413.03;;;38.72;21.80
54994;BME280;40891;47.242;8.648;2022-10-22T14:08:59;96401.72;;;38.26;21.19
54994;BME280;40891;47.242;8.648;2022-10-22T14:11:26;96400.91;;;38.37;21.48
54994;BME280;40891;47.242;8.648;2022-10-22T14:13:52;96400.34;;;37.65;21.91
54994;BME280;40891;47.242;8.648;2022-10-22T14:16:23;96398.53;;;37.46;21.55
54994;BME280;40891;47.242;8.648;2022-10-22T14:18:49;96395.94;;;38.14;21.15
54994;BME280;40891;47.242;8.648;2022-10-22T14:21:15;96399.63;;;38.15;21.11
54994;BME280;40891;47.242;8.648;2022-10-22T14:23:43;96400.81;;;38.49;20.45
54994;BME280;40891;47.242;8.648;2022-10-22T14:26:22;96401.22;;;38.43;21.21
54994;BME280;40891;47.242;8.648;2022-10-22T14:28:48;96396.19;;;38.57;20.53
54994;BME280;40891;47.242;8.648;2022-10-22T14:31:14;96395.16;;;38.92;20.63
54994;BME280;40891;47.242;8.648;2022-10-22T14:33:39;96392.28;;;38.39;20.79
54994;BME280;40891;47.242;8.648;2022-10-22T14:36:05;96394.41;;;38.00;21.61
54994;BME280;40891;47.242;8.648;2022-10-22T14:38:30;96391.81;;;37.56;22.09
54994;BME280;40891;47.242;8.648;2022-10-22T14:40:56;96394.84;;;37.58;22.04
54994;BME280;40891;47.242;8.648;2022-10-22T14:43:27;96399.19;;;37.70;21.10
54994;BME280;40891;47.242;8.648;2022-10-22T14:45:52;96396.72;;;36.58;23.04
54994;BME280;40891;47.242;8.648;2022-10-22T14:48:18;96400.75;;;36.42;23.89